Khassab, Oman

4:11 AM GST on September 21, 2014 (GMT +0400)
Ras Al Khaimah International | Change Station
CLOSE
Current Station
Airport
Location: Ras Al Khaimah,
Elevation: 102 ft
Nearby Weather Stations

Elev 102 ft 25.61 °N, 55.94 °E | Updated 1 hour ago

Clear
Clear
79 °F
Feels Like 79 °F
N
4
Wind Variable Wind from SSE

Today
High -- | Low -- °F
--% Chance of Precip.
Yesterday
High -- | Low -- °F
Precip. -- in
6:03 AM 6:12 PM
Waning Crescent, 10% visible
Pressure 29.62 in
Visibility -9999.0 miles
Clouds
Dew Point 63 °F
Humidity 57%
Rainfall 0.00 in
Snow Depth Not available.
UV Not available.
Pollen Not available.
Air Quality Not available.
Flu Activity Not available.
METAR OMRK 202300Z 16003KT CAVOK 26/17 Q1003 A2964

More Conditions Fewer Conditions

Pressure 29.62 in
Visibility -9999.0 miles
Clouds
Dew Point 63 °F
Humidity 57%
Rainfall 0.00 in
Snow Depth Not available.
UV Not available.
Pollen Not available.
Air Quality Not available.
Flu Activity Not available.
METAR OMRK 202300Z 16003KT CAVOK 26/17 Q1003 A2964

More Conditions Fewer Conditions

10-Day Weather Forecast

Almanac

Astronomy

Sep. 21, 2014 Rise Set
Actual Time 6:03 AM GST 6:12 PM GST
Civil Twilight 5:39 AM GST 6:36 PM GST
Nautical Twilight 5:13 AM GST 7:02 PM GST
Astronomical Twilight 4:46 AM GST 7:29 PM GST
Moon 3:27 AM GST 4:25 PM GST
Length of Visible Light 12h 56m
Length of Day
12h 09m
Tomorrow will be 1m 32s shorter.
Waning Crescent, 10% of the Moon is Illuminated
Sep 20
Waning Crescent
Sep 24
New
Oct 1
First Quarter
Oct 8
Full
Oct 15
Last Quarter

Yesterday's Extremes

Country Highs Country Lows

Community

WunderPhotos

Upload Photos

1,754,997 photos uploaded!

WunderBlogs® & News

Nearby

Snow Depth

Not available.

Earthquake Activity

City Distance Mag. Time & Date
No recent earthquake activity has been reported nearby.
Minimum magnitude displayed is 2.5.

Coastal Water Temperatures

Place Temperature
No Stations Reporting

Nearby Weather Stations